createdAt,value
2024-01-30T00:02:20.106Z,49.86
2024-01-30T00:06:22.233Z,50.22
2024-01-30T00:10:23.823Z,50.04
2024-01-30T00:14:25.437Z,49.94
2024-01-30T00:18:26.899Z,49.91
2024-01-30T00:22:31.440Z,50.18
2024-01-30T00:26:32.911Z,49.77
2024-01-30T00:30:34.354Z,49.85
2024-01-30T00:34:36.012Z,49.80
2024-01-30T00:38:38.585Z,49.85
2024-01-30T00:42:40.057Z,49.80
2024-01-30T00:46:41.541Z,49.46
2024-01-30T00:50:43.025Z,49.95
2024-01-30T00:54:45.067Z,49.57
2024-01-30T00:58:46.934Z,49.77
2024-01-30T01:02:48.496Z,49.64
2024-01-30T01:06:50.326Z,49.70
2024-01-30T01:10:51.862Z,49.66
2024-01-30T01:14:53.486Z,49.52
2024-01-30T01:18:55.032Z,49.61
2024-01-30T01:22:56.525Z,49.58
2024-01-30T01:26:59.797Z,49.78
2024-01-30T01:31:06.279Z,49.54
2024-01-30T01:35:08.163Z,49.76
2024-01-30T01:39:09.864Z,49.50
2024-01-30T01:43:11.401Z,49.57
2024-01-30T01:47:12.917Z,49.80
2024-01-30T01:51:15.380Z,49.62
2024-01-30T01:55:18.695Z,49.45
2024-01-30T01:59:21.457Z,49.36
2024-01-30T02:03:23.274Z,49.55
2024-01-30T02:07:25.473Z,49.15
2024-01-30T02:11:27.457Z,49.40
2024-01-30T02:15:30.194Z,49.26
2024-01-30T02:19:31.785Z,49.73
2024-01-30T02:23:35.448Z,49.23
2024-01-30T02:27:37.281Z,49.49
2024-01-30T02:31:38.704Z,49.51
2024-01-30T02:35:40.394Z,49.50
2024-01-30T02:39:41.874Z,49.35
2024-01-30T02:43:43.344Z,48.98
2024-01-30T02:47:45.037Z,49.19
2024-01-30T02:51:46.564Z,49.29
2024-01-30T02:55:48.256Z,49.31
2024-01-30T02:59:49.810Z,49.33
2024-01-30T03:03:51.516Z,49.66
2024-01-30T03:07:53.161Z,49.24
2024-01-30T03:11:54.673Z,49.33
2024-01-30T03:15:56.125Z,49.26
2024-01-30T03:19:57.864Z,49.12
2024-01-30T03:23:59.409Z,49.15
2024-01-30T03:28:00.963Z,49.31
2024-01-30T03:32:02.497Z,48.93
2024-01-30T03:36:05.854Z,48.90
2024-01-30T03:40:07.965Z,49.19
2024-01-30T03:44:09.514Z,49.17
2024-01-30T03:48:11.042Z,48.83
2024-01-30T03:52:12.566Z,49.02
2024-01-30T03:56:15.018Z,48.70
2024-01-30T04:00:16.856Z,49.20
2024-01-30T04:04:21.776Z,48.67
2024-01-30T04:08:23.746Z,49.14
2024-01-30T04:12:25.505Z,49.24
2024-01-30T04:16:27.162Z,49.19
2024-01-30T04:20:28.822Z,49.55
2024-01-30T04:24:30.306Z,49.18
2024-01-30T04:28:31.956Z,48.98
2024-01-30T04:32:33.828Z,49.65
2024-01-30T04:36:35.286Z,49.32
2024-01-30T04:40:36.817Z,49.21
2024-01-30T04:44:38.381Z,49.52
2024-01-30T04:48:40.066Z,49.46
2024-01-30T04:52:41.673Z,49.30
2024-01-30T04:56:43.124Z,49.62
2024-01-30T05:00:44.888Z,49.41
2024-01-30T05:04:46.667Z,49.45
2024-01-30T05:08:48.179Z,49.18
2024-01-30T05:12:49.749Z,49.54
2024-01-30T05:16:51.221Z,49.72
2024-01-30T05:20:52.724Z,49.45
2024-01-30T05:24:54.273Z,49.22
2024-01-30T05:28:55.835Z,49.35
2024-01-30T05:32:57.450Z,49.43
2024-01-30T05:36:58.996Z,49.41
2024-01-30T05:41:00.496Z,49.20
2024-01-30T05:45:01.962Z,49.50
2024-01-30T05:49:03.564Z,49.33
2024-01-30T05:53:05.142Z,49.54
2024-01-30T05:57:06.754Z,49.27
2024-01-30T06:01:09.816Z,49.34
2024-01-30T06:05:11.501Z,49.53
2024-01-30T06:09:14.140Z,49.66
2024-01-30T06:13:15.785Z,49.61
2024-01-30T06:17:17.641Z,49.71
2024-01-30T06:21:19.489Z,49.40
2024-01-30T06:25:21.107Z,49.33
2024-01-30T06:29:23.058Z,49.41
2024-01-30T06:33:24.642Z,49.22
2024-01-30T06:37:26.195Z,49.77
2024-01-30T06:41:27.834Z,49.49
2024-01-30T06:45:29.284Z,49.83
2024-01-30T06:49:30.906Z,49.54
2024-01-30T06:53:32.474Z,49.70
2024-01-30T06:57:33.983Z,49.50
2024-01-30T07:01:35.543Z,49.48
2024-01-30T07:05:37.165Z,49.66
2024-01-30T07:09:38.615Z,49.95
2024-01-30T07:13:40.074Z,49.54
2024-01-30T07:17:42.463Z,49.43
2024-01-30T07:21:44.010Z,49.77
2024-01-30T07:25:48.409Z,49.41
2024-01-30T07:29:51.402Z,49.52
2024-01-30T07:33:52.902Z,49.74
2024-01-30T07:37:54.413Z,49.56
2024-01-30T07:41:55.861Z,49.39
2024-01-30T07:45:57.548Z,49.54
2024-01-30T07:49:59.126Z,49.28
2024-01-30T07:54:00.725Z,49.49
2024-01-30T07:58:02.836Z,49.36
2024-01-30T08:02:04.761Z,49.53
2024-01-30T08:06:07.790Z,49.33
2024-01-30T08:10:09.962Z,49.78
2024-01-30T08:14:11.783Z,49.70
2024-01-30T08:18:13.587Z,49.49
2024-01-30T08:22:15.147Z,49.44
2024-01-30T08:26:16.791Z,49.60
2024-01-30T08:30:18.377Z,49.61
2024-01-30T08:34:20.356Z,49.46
2024-01-30T08:38:21.824Z,49.46
2024-01-30T08:42:24.063Z,49.92
2024-01-30T08:46:25.904Z,49.82
2024-01-30T08:50:27.874Z,49.54
2024-01-30T08:54:29.484Z,49.54
2024-01-30T08:58:31.668Z,49.45
2024-01-30T09:02:34.378Z,49.70
2024-01-30T09:06:35.898Z,49.91
2024-01-30T09:10:38.416Z,49.95
2024-01-30T09:14:41.723Z,50.33
2024-01-30T09:18:43.436Z,50.62
2024-01-30T09:22:44.972Z,50.48
2024-01-30T09:26:46.507Z,50.67
2024-01-30T09:30:48.090Z,50.51
2024-01-30T09:34:49.783Z,50.69
2024-01-30T09:38:51.557Z,50.48
2024-01-30T09:42:53.227Z,50.73
2024-01-30T09:46:54.834Z,50.83
2024-01-30T09:50:58.508Z,50.56
2024-01-30T09:55:02.258Z,50.89
2024-01-30T09:59:03.828Z,50.64
2024-01-30T10:03:05.943Z,50.75
2024-01-30T10:07:10.336Z,50.75
2024-01-30T10:11:12.275Z,50.63
2024-01-30T10:15:15.285Z,50.75
2024-01-30T10:19:16.844Z,51.16
2024-01-30T10:23:20.161Z,50.76
2024-01-30T10:27:27.858Z,51.11
2024-01-30T10:31:29.488Z,51.11
2024-01-30T10:35:31.143Z,50.99
2024-01-30T10:39:35.185Z,51.52
2024-01-30T10:43:39.302Z,51.27
2024-01-30T10:47:49.586Z,51.64
2024-01-30T10:51:52.958Z,51.37
2024-01-30T10:55:56.360Z,51.28
2024-01-30T10:59:59.532Z,51.67
2024-01-30T11:04:01.188Z,51.88
2024-01-30T11:08:15.175Z,51.90
2024-01-30T11:12:16.789Z,51.81
2024-01-30T11:16:18.294Z,51.90
2024-01-30T11:20:26.510Z,52.07
2024-01-30T11:24:28.794Z,51.87
2024-01-30T11:28:35.800Z,51.76
2024-01-30T11:32:38.124Z,52.10
2024-01-30T11:36:44.147Z,51.93
2024-01-30T11:40:46.990Z,52.43
2024-01-30T11:44:50.142Z,52.36
2024-01-30T11:48:53.196Z,52.53
2024-01-30T11:52:55.622Z,52.60
2024-01-30T11:56:57.058Z,52.55
2024-01-30T12:00:59.291Z,52.51
2024-01-30T12:05:05.863Z,52.79
2024-01-30T12:09:11.076Z,52.57
2024-01-30T12:13:13.726Z,52.67
2024-01-30T12:17:25.889Z,53.30
2024-01-30T12:21:27.608Z,53.62
2024-01-30T12:25:29.411Z,53.54
2024-01-30T12:29:36.274Z,53.43
2024-01-30T12:33:40.003Z,53.62
2024-01-30T12:37:43.750Z,53.64
2024-01-30T12:41:45.392Z,53.80
2024-01-30T12:45:48.155Z,53.71
2024-01-30T12:49:49.876Z,53.35
2024-01-30T12:53:51.497Z,53.67
2024-01-30T12:57:53.022Z,54.61
2024-01-30T13:01:55.010Z,54.92
2024-01-30T13:05:56.656Z,56.32
2024-01-30T13:10:03.960Z,56.27
2024-01-30T13:14:05.568Z,57.53
2024-01-30T13:18:07.568Z,57.16
2024-01-30T13:22:09.169Z,57.77
2024-01-30T13:26:10.673Z,57.73
2024-01-30T13:30:12.562Z,57.04
2024-01-30T13:34:15.063Z,57.94
2024-01-30T13:38:16.950Z,58.24
2024-01-30T13:42:18.524Z,58.40
2024-01-30T13:46:20.184Z,58.62
2024-01-30T13:50:21.666Z,58.95
2024-01-30T13:54:23.821Z,58.56
2024-01-30T13:58:25.359Z,58.66
2024-01-30T14:02:27.125Z,58.44
2024-01-30T14:06:28.931Z,59.52
2024-01-30T14:10:30.719Z,59.42
2024-01-30T14:14:32.248Z,59.34
2024-01-30T14:18:33.729Z,59.95
2024-01-30T14:22:35.407Z,59.65
2024-01-30T14:26:37.809Z,59.64
2024-01-30T14:30:39.369Z,60.11
2024-01-30T14:34:41.083Z,59.31
2024-01-30T14:38:43.657Z,59.81
2024-01-30T14:42:45.717Z,59.81
2024-01-30T14:46:47.370Z,60.06
2024-01-30T14:50:48.955Z,60.04
2024-01-30T14:54:50.599Z,59.73
2024-01-30T14:58:53.337Z,59.64
2024-01-30T15:02:55.008Z,60.14
2024-01-30T15:06:56.908Z,60.16
2024-01-30T15:11:00.006Z,60.67
2024-01-30T15:15:02.005Z,60.29
2024-01-30T15:19:05.926Z,60.62
2024-01-30T15:23:07.772Z,60.30
2024-01-30T15:27:09.317Z,60.43
2024-01-30T15:31:10.930Z,60.22
2024-01-30T15:35:12.595Z,59.95
2024-01-30T15:39:16.307Z,60.17
2024-01-30T15:43:17.889Z,60.69
2024-01-30T15:47:19.501Z,61.09
2024-01-30T15:51:20.956Z,59.99
2024-01-30T15:55:22.532Z,60.44
2024-01-30T15:59:24.142Z,60.39
2024-01-30T16:03:27.822Z,59.86
2024-01-30T16:07:32.352Z,58.73
2024-01-30T16:11:33.952Z,60.60
2024-01-30T16:15:35.740Z,60.18
2024-01-30T16:19:37.323Z,60.48
2024-01-30T16:23:38.982Z,60.58
2024-01-30T16:27:40.795Z,59.68
2024-01-30T16:31:42.341Z,59.98
2024-01-30T16:35:46.748Z,59.16
2024-01-30T16:39:49.513Z,59.98
2024-01-30T16:43:51.017Z,60.26
2024-01-30T16:47:52.548Z,60.16
2024-01-30T16:51:54.120Z,60.08
2024-01-30T16:55:55.679Z,60.01
2024-01-30T16:59:57.401Z,59.72
2024-01-30T17:03:58.894Z,59.77
2024-01-30T17:08:00.960Z,59.95
2024-01-30T17:12:04.116Z,59.48
2024-01-30T17:16:05.900Z,59.81
2024-01-30T17:20:08.786Z,59.98
2024-01-30T17:24:12.176Z,59.47
2024-01-30T17:28:14.505Z,60.83
2024-01-30T17:32:16.046Z,60.14
2024-01-30T17:36:17.624Z,60.52
2024-01-30T17:40:19.926Z,59.98
2024-01-30T17:44:22.011Z,59.66
2024-01-30T17:48:23.736Z,60.01
2024-01-30T17:52:25.473Z,60.34
2024-01-30T17:56:27.106Z,60.07
2024-01-30T18:00:28.728Z,59.63
2024-01-30T18:04:30.703Z,59.88
2024-01-30T18:08:35.517Z,59.75
2024-01-30T18:12:37.086Z,59.92
2024-01-30T18:16:38.673Z,60.11
2024-01-30T18:20:41.228Z,59.75
2024-01-30T18:24:43.567Z,59.55
2024-01-30T18:28:45.418Z,59.73
2024-01-30T18:32:47.338Z,59.77
2024-01-30T18:36:48.881Z,59.46
2024-01-30T18:40:50.552Z,60.05
2024-01-30T18:44:52.035Z,60.08
2024-01-30T18:48:53.746Z,59.89
2024-01-30T18:52:55.361Z,60.08
2024-01-30T18:56:56.832Z,60.06
2024-01-30T19:00:58.447Z,59.59
2024-01-30T19:05:01.290Z,59.46
2024-01-30T19:09:03.525Z,59.85
2024-01-30T19:13:06.579Z,59.83
2024-01-30T19:17:08.163Z,60.26
2024-01-30T19:21:09.726Z,59.81
2024-01-30T19:25:11.332Z,60.22
2024-01-30T19:29:12.812Z,60.28
2024-01-30T19:33:14.276Z,59.90
2024-01-30T19:37:15.755Z,60.38
2024-01-30T19:41:17.333Z,59.85
2024-01-30T19:45:18.933Z,60.02
2024-01-30T19:49:21.549Z,60.34
2024-01-30T19:53:24.293Z,60.31
2024-01-30T19:57:25.820Z,60.16
2024-01-30T20:01:27.584Z,60.75
2024-01-30T20:05:29.308Z,61.13
2024-01-30T20:09:30.883Z,59.72
2024-01-30T20:13:33.058Z,60.78
2024-01-30T20:17:34.756Z,60.78
2024-01-30T20:21:37.112Z,60.25
2024-01-30T20:25:38.672Z,60.26
2024-01-30T20:29:40.159Z,59.98
2024-01-30T20:33:41.959Z,60.15
2024-01-30T20:37:43.579Z,60.34
2024-01-30T20:41:45.981Z,60.12
2024-01-30T20:45:47.609Z,59.76
2024-01-30T20:49:49.240Z,60.26
2024-01-30T20:53:50.699Z,60.73
2024-01-30T20:57:52.384Z,59.34
2024-01-30T21:01:53.996Z,59.36
2024-01-30T21:05:56.445Z,59.97
2024-01-30T21:09:58.056Z,60.30
2024-01-30T21:13:59.672Z,59.72
2024-01-30T21:18:01.696Z,60.39
2024-01-30T21:22:03.287Z,59.63
2024-01-30T21:26:05.034Z,59.41
2024-01-30T21:30:07.764Z,59.23
2024-01-30T21:34:09.315Z,60.21
2024-01-30T21:38:10.808Z,59.34
2024-01-30T21:42:12.424Z,58.38
2024-01-30T21:46:24.060Z,58.80
2024-01-30T21:50:25.657Z,58.34
2024-01-30T21:54:27.137Z,58.73
2024-01-30T21:58:28.711Z,59.16
2024-01-30T22:02:30.199Z,59.06
2024-01-30T22:06:31.811Z,58.89
2024-01-30T22:10:33.460Z,59.13
2024-01-30T22:14:36.375Z,58.45
2024-01-30T22:18:38.031Z,59.41
2024-01-30T22:22:39.512Z,58.59
2024-01-30T22:26:42.691Z,58.07
2024-01-30T22:30:44.330Z,58.90
2024-01-30T22:34:45.930Z,58.22
2024-01-30T22:38:47.411Z,57.88
2024-01-30T22:42:48.905Z,58.67
2024-01-30T22:46:50.490Z,57.34
2024-01-30T22:50:52.090Z,57.90
2024-01-30T22:54:53.654Z,57.45
2024-01-30T22:58:55.217Z,57.12
2024-01-30T23:02:57.783Z,57.33
2024-01-30T23:06:59.551Z,57.28
2024-01-30T23:11:01.012Z,57.54
2024-01-30T23:15:03.874Z,57.78
2024-01-30T23:19:05.574Z,57.38
2024-01-30T23:23:09.268Z,56.81
2024-01-30T23:27:10.706Z,57.44
2024-01-30T23:31:12.272Z,57.44
2024-01-30T23:35:13.982Z,56.76
2024-01-30T23:39:15.631Z,56.61
2024-01-30T23:43:17.166Z,57.34
2024-01-30T23:47:18.769Z,57.07
2024-01-30T23:51:20.266Z,57.33
2024-01-30T23:55:21.763Z,57.24
2024-01-30T23:59:23.460Z,58.22
